sensor_id;sensor_type;location;lat;lon;timestamp;temperature;humidity
29201;DHT22;16244;51.956;12.980;2023-08-06T00:01:52;16.50;99.90
29201;DHT22;16244;51.956;12.980;2023-08-06T00:04:19;16.50;99.90
29201;DHT22;16244;51.956;12.980;2023-08-06T00:06:46;16.40;99.90
29201;DHT22;16244;51.956;12.980;2023-08-06T00:09:14;16.20;99.90
29201;DHT22;16244;51.956;12.980;2023-08-06T00:11:42;16.20;99.90
29201;DHT22;16244;51.956;12.980;2023-08-06T00:14:11;16.20;99.90
29201;DHT22;16244;51.956;12.980;2023-08-06T00:16:43;16.20;99.90
29201;DHT22;16244;51.956;12.980;2023-08-06T00:19:11;16.20;99.90
29201;DHT22;16244;51.956;12.980;2023-08-06T00:21:43;16.20;99.90
29201;DHT22;16244;51.956;12.980;2023-08-06T00:24:10;16.20;99.90
29201;DHT22;16244;51.956;12.980;2023-08-06T00:26:39;16.10;99.90
29201;DHT22;16244;51.956;12.980;2023-08-06T00:29:06;16.10;99.90
29201;DHT22;16244;51.956;12.980;2023-08-06T00:31:35;16.10;99.90
29201;DHT22;16244;51.956;12.980;2023-08-06T00:34:02;16.10;99.90
29201;DHT22;16244;51.956;12.980;2023-08-06T00:36:30;16.10;99.90
29201;DHT22;16244;51.956;12.980;2023-08-06T00:38:57;16.20;99.90
29201;DHT22;16244;51.956;12.980;2023-08-06T00:41:25;16.10;99.90
29201;DHT22;16244;51.956;12.980;2023-08-06T00:43:52;16.10;99.90
29201;DHT22;16244;51.956;12.980;2023-08-06T00:46:20;16.20;99.90
29201;DHT22;16244;51.956;12.980;2023-08-06T00:48:51;16.30;99.90
29201;DHT22;16244;51.956;12.980;2023-08-06T00:51:19;16.30;99.90
29201;DHT22;16244;51.956;12.980;2023-08-06T00:53:48;16.30;99.90
29201;DHT22;16244;51.956;12.980;2023-08-06T00:56:16;16.30;99.90
29201;DHT22;16244;51.956;12.980;2023-08-06T00:58:44;16.30;99.90
29201;DHT22;16244;51.956;12.980;2023-08-06T01:01:12;16.30;99.90
29201;DHT22;16244;51.956;12.980;2023-08-06T01:03:39;16.30;99.90
29201;DHT22;16244;51.956;12.980;2023-08-06T01:06:08;16.20;99.90
29201;DHT22;16244;51.956;12.980;2023-08-06T01:08:42;16.20;99.90
29201;DHT22;16244;51.956;12.980;2023-08-06T01:11:20;16.30;99.90
29201;DHT22;16244;51.956;12.980;2023-08-06T01:13:54;16.40;99.90
29201;DHT22;16244;51.956;12.980;2023-08-06T01:16:25;16.30;99.90
29201;DHT22;16244;51.956;12.980;2023-08-06T01:18:53;16.30;99.90
29201;DHT22;16244;51.956;12.980;2023-08-06T01:21:22;16.30;99.90
29201;DHT22;16244;51.956;12.980;2023-08-06T01:23:49;16.30;99.90
29201;DHT22;16244;51.956;12.980;2023-08-06T01:26:24;16.20;99.90
29201;DHT22;16244;51.956;12.980;2023-08-06T01:28:59;16.30;99.90
29201;DHT22;16244;51.956;12.980;2023-08-06T01:31:29;16.30;99.90
29201;DHT22;16244;51.956;12.980;2023-08-06T01:33:58;16.30;99.90
29201;DHT22;16244;51.956;12.980;2023-08-06T01:36:28;16.30;99.90
29201;DHT22;16244;51.956;12.980;2023-08-06T01:38:57;16.30;99.90
29201;DHT22;16244;51.956;12.980;2023-08-06T01:41:25;16.30;99.90
29201;DHT22;16244;51.956;12.980;2023-08-06T01:43:52;16.30;99.90
29201;DHT22;16244;51.956;12.980;2023-08-06T01:46:19;16.30;99.90
29201;DHT22;16244;51.956;12.980;2023-08-06T01:48:47;16.30;99.90
29201;DHT22;16244;51.956;12.980;2023-08-06T01:51:14;16.30;99.90
29201;DHT22;16244;51.956;12.980;2023-08-06T01:53:43;16.30;99.90
29201;DHT22;16244;51.956;12.980;2023-08-06T01:56:11;16.20;99.90
29201;DHT22;16244;51.956;12.980;2023-08-06T01:58:38;16.20;99.90
29201;DHT22;16244;51.956;12.980;2023-08-06T02:01:05;16.20;99.90
29201;DHT22;16244;51.956;12.980;2023-08-06T02:03:33;16.20;99.90
29201;DHT22;16244;51.956;12.980;2023-08-06T02:06:00;16.20;99.90
29201;DHT22;16244;51.956;12.980;2023-08-06T02:08:28;16.20;99.90
29201;DHT22;16244;51.956;12.980;2023-08-06T02:10:57;16.20;99.90
29201;DHT22;16244;51.956;12.980;2023-08-06T02:13:25;16.20;99.90
29201;DHT22;16244;51.956;12.980;2023-08-06T02:15:53;16.20;99.90
29201;DHT22;16244;51.956;12.980;2023-08-06T02:18:20;16.20;99.90
29201;DHT22;16244;51.956;12.980;2023-08-06T02:20:55;16.20;99.90
29201;DHT22;16244;51.956;12.980;2023-08-06T02:23:23;16.20;99.90
29201;DHT22;16244;51.956;12.980;2023-08-06T02:25:58;16.20;99.90
29201;DHT22;16244;51.956;12.980;2023-08-06T02:28:26;16.20;99.90
29201;DHT22;16244;51.956;12.980;2023-08-06T02:30:53;16.20;99.90
29201;DHT22;16244;51.956;12.980;2023-08-06T02:33:21;16.20;99.90
29201;DHT22;16244;51.956;12.980;2023-08-06T02:35:49;16.20;99.90
29201;DHT22;16244;51.956;12.980;2023-08-06T02:38:16;16.20;99.90
29201;DHT22;16244;51.956;12.980;2023-08-06T02:40:44;16.20;99.90
29201;DHT22;16244;51.956;12.980;2023-08-06T02:43:13;16.20;99.90
29201;DHT22;16244;51.956;12.980;2023-08-06T02:45:40;16.20;99.90
29201;DHT22;16244;51.956;12.980;2023-08-06T02:48:08;16.20;99.90
29201;DHT22;16244;51.956;12.980;2023-08-06T02:50:38;16.20;99.90
29201;DHT22;16244;51.956;12.980;2023-08-06T02:53:06;16.20;99.90
29201;DHT22;16244;51.956;12.980;2023-08-06T02:55:34;16.20;99.90
29201;DHT22;16244;51.956;12.980;2023-08-06T02:58:02;16.10;99.90
29201;DHT22;16244;51.956;12.980;2023-08-06T03:00:30;16.10;99.90
29201;DHT22;16244;51.956;12.980;2023-08-06T03:02:58;16.10;99.90
29201;DHT22;16244;51.956;12.980;2023-08-06T03:05:25;16.10;99.90
29201;DHT22;16244;51.956;12.980;2023-08-06T03:07:53;16.00;99.90
29201;DHT22;16244;51.956;12.980;2023-08-06T03:10:21;16.00;99.90
29201;DHT22;16244;51.956;12.980;2023-08-06T03:12:48;16.00;99.90
29201;DHT22;16244;51.956;12.980;2023-08-06T03:15:16;15.90;99.90
29201;DHT22;16244;51.956;12.980;2023-08-06T03:17:44;16.00;99.90
29201;DHT22;16244;51.956;12.980;2023-08-06T03:20:12;16.00;99.90
29201;DHT22;16244;51.956;12.980;2023-08-06T03:22:39;16.00;99.90
29201;DHT22;16244;51.956;12.980;2023-08-06T03:25:07;16.00;99.90
29201;DHT22;16244;51.956;12.980;2023-08-06T03:27:34;16.00;99.90
29201;DHT22;16244;51.956;12.980;2023-08-06T03:30:02;16.00;99.90
29201;DHT22;16244;51.956;12.980;2023-08-06T03:32:30;16.10;99.90
29201;DHT22;16244;51.956;12.980;2023-08-06T03:34:59;16.00;99.90
29201;DHT22;16244;51.956;12.980;2023-08-06T03:37:27;16.10;99.90
29201;DHT22;16244;51.956;12.980;2023-08-06T03:39:54;16.00;99.90
29201;DHT22;16244;51.956;12.980;2023-08-06T03:42:22;16.00;99.90
29201;DHT22;16244;51.956;12.980;2023-08-06T03:44:49;16.00;99.90
29201;DHT22;16244;51.956;12.980;2023-08-06T03:47:17;16.00;99.90
29201;DHT22;16244;51.956;12.980;2023-08-06T03:49:44;16.00;99.90
29201;DHT22;16244;51.956;12.980;2023-08-06T03:52:13;16.00;99.90
29201;DHT22;16244;51.956;12.980;2023-08-06T03:54:41;16.00;99.90
29201;DHT22;16244;51.956;12.980;2023-08-06T03:57:09;16.00;99.90
29201;DHT22;16244;51.956;12.980;2023-08-06T03:59:37;16.00;99.90
29201;DHT22;16244;51.956;12.980;2023-08-06T04:02:04;16.00;99.90
29201;DHT22;16244;51.956;12.980;2023-08-06T04:04:32;16.00;99.90
29201;DHT22;16244;51.956;12.980;2023-08-06T04:06:59;16.00;99.90
29201;DHT22;16244;51.956;12.980;2023-08-06T04:09:29;16.00;99.90
29201;DHT22;16244;51.956;12.980;2023-08-06T04:11:56;15.90;99.90
29201;DHT22;16244;51.956;12.980;2023-08-06T04:14:26;15.80;99.90
29201;DHT22;16244;51.956;12.980;2023-08-06T04:16:53;15.70;99.90
29201;DHT22;16244;51.956;12.980;2023-08-06T04:19:21;15.80;99.90
29201;DHT22;16244;51.956;12.980;2023-08-06T04:21:48;15.80;99.90
29201;DHT22;16244;51.956;12.980;2023-08-06T04:24:16;15.90;99.90
29201;DHT22;16244;51.956;12.980;2023-08-06T04:26:44;15.90;99.90
29201;DHT22;16244;51.956;12.980;2023-08-06T04:29:12;15.80;99.90
29201;DHT22;16244;51.956;12.980;2023-08-06T04:31:39;15.80;99.90
29201;DHT22;16244;51.956;12.980;2023-08-06T04:34:07;15.70;99.90
29201;DHT22;16244;51.956;12.980;2023-08-06T04:36:35;15.80;99.90
29201;DHT22;16244;51.956;12.980;2023-08-06T04:39:04;15.80;99.90
29201;DHT22;16244;51.956;12.980;2023-08-06T04:41:31;15.90;99.90
29201;DHT22;16244;51.956;12.980;2023-08-06T04:44:00;15.90;99.90
29201;DHT22;16244;51.956;12.980;2023-08-06T04:46:27;15.90;99.90
29201;DHT22;16244;51.956;12.980;2023-08-06T04:48:55;16.00;99.90
29201;DHT22;16244;51.956;12.980;2023-08-06T04:51:22;16.00;99.90
29201;DHT22;16244;51.956;12.980;2023-08-06T04:53:50;16.00;99.90
29201;DHT22;16244;51.956;12.980;2023-08-06T04:56:17;16.00;99.90
29201;DHT22;16244;51.956;12.980;2023-08-06T04:58:44;16.00;99.90
29201;DHT22;16244;51.956;12.980;2023-08-06T05:01:13;16.10;99.90
29201;DHT22;16244;51.956;12.980;2023-08-06T05:03:41;16.10;99.90
29201;DHT22;16244;51.956;12.980;2023-08-06T05:06:08;16.00;99.90
29201;DHT22;16244;51.956;12.980;2023-08-06T05:08:36;16.00;99.90
29201;DHT22;16244;51.956;12.980;2023-08-06T05:11:04;16.10;99.90
29201;DHT22;16244;51.956;12.980;2023-08-06T05:13:31;16.10;99.90
29201;DHT22;16244;51.956;12.980;2023-08-06T05:15:59;16.10;99.90
29201;DHT22;16244;51.956;12.980;2023-08-06T05:18:28;16.10;99.90
29201;DHT22;16244;51.956;12.980;2023-08-06T05:20:56;16.20;99.90
29201;DHT22;16244;51.956;12.980;2023-08-06T05:23:24;16.20;99.90
29201;DHT22;16244;51.956;12.980;2023-08-06T05:25:51;16.10;99.90
29201;DHT22;16244;51.956;12.980;2023-08-06T05:28:19;16.10;99.90
29201;DHT22;16244;51.956;12.980;2023-08-06T05:30:47;16.10;99.90
29201;DHT22;16244;51.956;12.980;2023-08-06T05:33:14;16.10;99.90
29201;DHT22;16244;51.956;12.980;2023-08-06T05:35:43;16.10;99.90
29201;DHT22;16244;51.956;12.980;2023-08-06T05:38:10;16.10;99.90
29201;DHT22;16244;51.956;12.980;2023-08-06T05:40:38;16.20;99.90
29201;DHT22;16244;51.956;12.980;2023-08-06T05:43:05;16.20;99.90
29201;DHT22;16244;51.956;12.980;2023-08-06T05:45:32;16.20;99.90
29201;DHT22;16244;51.956;12.980;2023-08-06T05:48:00;16.30;99.90
29201;DHT22;16244;51.956;12.980;2023-08-06T05:50:27;16.30;99.90
29201;DHT22;16244;51.956;12.980;2023-08-06T05:52:56;16.40;99.90
29201;DHT22;16244;51.956;12.980;2023-08-06T05:55:24;16.40;99.90
29201;DHT22;16244;51.956;12.980;2023-08-06T05:57:51;16.50;99.90
29201;DHT22;16244;51.956;12.980;2023-08-06T06:00:20;16.50;99.90
29201;DHT22;16244;51.956;12.980;2023-08-06T06:02:47;16.40;99.90
29201;DHT22;16244;51.956;12.980;2023-08-06T06:05:15;16.20;99.90
29201;DHT22;16244;51.956;12.980;2023-08-06T06:07:42;16.20;99.90
29201;DHT22;16244;51.956;12.980;2023-08-06T06:10:11;16.20;99.90
29201;DHT22;16244;51.956;12.980;2023-08-06T06:12:39;16.20;99.90
29201;DHT22;16244;51.956;12.980;2023-08-06T06:15:07;16.20;99.90
29201;DHT22;16244;51.956;12.980;2023-08-06T06:17:34;16.40;99.90
29201;DHT22;16244;51.956;12.980;2023-08-06T06:20:02;16.30;99.90
29201;DHT22;16244;51.956;12.980;2023-08-06T06:22:31;16.40;99.90
29201;DHT22;16244;51.956;12.980;2023-08-06T06:24:58;16.40;99.90
29201;DHT22;16244;51.956;12.980;2023-08-06T06:27:27;16.50;99.90
29201;DHT22;16244;51.956;12.980;2023-08-06T06:29:54;16.60;99.90
29201;DHT22;16244;51.956;12.980;2023-08-06T06:32:22;16.50;99.90
29201;DHT22;16244;51.956;12.980;2023-08-06T06:34:49;16.50;99.90
29201;DHT22;16244;51.956;12.980;2023-08-06T06:37:17;16.60;99.90
29201;DHT22;16244;51.956;12.980;2023-08-06T06:39:44;16.70;99.90
29201;DHT22;16244;51.956;12.980;2023-08-06T06:42:12;16.80;99.90
29201;DHT22;16244;51.956;12.980;2023-08-06T06:44:42;16.90;99.90
29201;DHT22;16244;51.956;12.980;2023-08-06T06:47:10;17.00;99.90
29201;DHT22;16244;51.956;12.980;2023-08-06T06:49:37;16.90;99.90
29201;DHT22;16244;51.956;12.980;2023-08-06T06:52:06;16.90;99.90
29201;DHT22;16244;51.956;12.980;2023-08-06T06:54:33;16.90;99.90
29201;DHT22;16244;51.956;12.980;2023-08-06T06:57:01;17.00;99.90
29201;DHT22;16244;51.956;12.980;2023-08-06T06:59:28;17.00;99.90
29201;DHT22;16244;51.956;12.980;2023-08-06T07:01:57;17.10;99.90
29201;DHT22;16244;51.956;12.980;2023-08-06T07:04:24;17.10;99.90
29201;DHT22;16244;51.956;12.980;2023-08-06T07:06:52;17.00;99.90
29201;DHT22;16244;51.956;12.980;2023-08-06T07:09:24;17.00;99.90
29201;DHT22;16244;51.956;12.980;2023-08-06T07:11:56;17.10;99.90
29201;DHT22;16244;51.956;12.980;2023-08-06T07:14:26;17.20;99.90
29201;DHT22;16244;51.956;12.980;2023-08-06T07:16:54;17.20;99.90
29201;DHT22;16244;51.956;12.980;2023-08-06T07:19:26;17.20;99.90
29201;DHT22;16244;51.956;12.980;2023-08-06T07:21:56;17.30;99.90
29201;DHT22;16244;51.956;12.980;2023-08-06T07:24:27;17.30;99.90
29201;DHT22;16244;51.956;12.980;2023-08-06T07:26:59;17.20;99.90
29201;DHT22;16244;51.956;12.980;2023-08-06T07:29:29;17.20;99.90
29201;DHT22;16244;51.956;12.980;2023-08-06T07:31:58;17.30;99.90
29201;DHT22;16244;51.956;12.980;2023-08-06T07:34:30;17.40;99.90
29201;DHT22;16244;51.956;12.980;2023-08-06T07:37:00;17.40;99.90
29201;DHT22;16244;51.956;12.980;2023-08-06T07:39:30;17.40;99.90
29201;DHT22;16244;51.956;12.980;2023-08-06T07:41:59;17.40;99.90
29201;DHT22;16244;51.956;12.980;2023-08-06T07:44:28;17.50;99.90
29201;DHT22;16244;51.956;12.980;2023-08-06T07:46:57;17.50;99.90
29201;DHT22;16244;51.956;12.980;2023-08-06T07:49:31;17.30;99.90
29201;DHT22;16244;51.956;12.980;2023-08-06T07:52:01;17.40;99.90
29201;DHT22;16244;51.956;12.980;2023-08-06T07:54:33;17.40;99.90
29201;DHT22;16244;51.956;12.980;2023-08-06T07:57:02;17.30;99.90
29201;DHT22;16244;51.956;12.980;2023-08-06T07:59:45;17.50;99.90
29201;DHT22;16244;51.956;12.980;2023-08-06T08:02:20;17.60;99.90
29201;DHT22;16244;51.956;12.980;2023-08-06T08:04:54;17.60;99.90
29201;DHT22;16244;51.956;12.980;2023-08-06T08:07:24;17.70;99.90
29201;DHT22;16244;51.956;12.980;2023-08-06T08:09:57;17.70;99.90
29201;DHT22;16244;51.956;12.980;2023-08-06T08:12:40;17.80;99.90
29201;DHT22;16244;51.956;12.980;2023-08-06T08:15:15;17.70;99.90
29201;DHT22;16244;51.956;12.980;2023-08-06T08:17:46;17.60;99.90
29201;DHT22;16244;51.956;12.980;2023-08-06T08:20:20;17.60;99.90
29201;DHT22;16244;51.956;12.980;2023-08-06T08:22:51;17.70;99.90
29201;DHT22;16244;51.956;12.980;2023-08-06T08:25:24;17.70;99.90
29201;DHT22;16244;51.956;12.980;2023-08-06T08:27:55;17.90;99.90
29201;DHT22;16244;51.956;12.980;2023-08-06T08:30:25;17.90;99.90
29201;DHT22;16244;51.956;12.980;2023-08-06T08:32:56;18.10;99.90
29201;DHT22;16244;51.956;12.980;2023-08-06T08:35:29;18.30;99.90
29201;DHT22;16244;51.956;12.980;2023-08-06T08:38:01;18.40;99.90
29201;DHT22;16244;51.956;12.980;2023-08-06T08:40:33;18.50;99.90
29201;DHT22;16244;51.956;12.980;2023-08-06T08:43:04;18.60;99.90
29201;DHT22;16244;51.956;12.980;2023-08-06T08:45:34;18.40;99.90
29201;DHT22;16244;51.956;12.980;2023-08-06T08:48:06;18.40;99.90
29201;DHT22;16244;51.956;12.980;2023-08-06T08:50:37;18.50;99.90
29201;DHT22;16244;51.956;12.980;2023-08-06T08:53:05;18.50;99.90
29201;DHT22;16244;51.956;12.980;2023-08-06T08:55:33;18.70;99.90
29201;DHT22;16244;51.956;12.980;2023-08-06T08:58:01;18.70;99.90
29201;DHT22;16244;51.956;12.980;2023-08-06T09:00:29;18.70;99.90
29201;DHT22;16244;51.956;12.980;2023-08-06T09:02:57;18.70;99.90
29201;DHT22;16244;51.956;12.980;2023-08-06T09:05:28;18.70;99.90
29201;DHT22;16244;51.956;12.980;2023-08-06T09:08:02;18.90;99.90
29201;DHT22;16244;51.956;12.980;2023-08-06T09:10:30;19.00;99.90
29201;DHT22;16244;51.956;12.980;2023-08-06T09:12:58;19.20;99.90
29201;DHT22;16244;51.956;12.980;2023-08-06T09:15:28;19.30;99.90
29201;DHT22;16244;51.956;12.980;2023-08-06T09:17:55;19.40;99.90
29201;DHT22;16244;51.956;12.980;2023-08-06T09:20:23;19.60;99.90
29201;DHT22;16244;51.956;12.980;2023-08-06T09:22:53;19.50;99.90
29201;DHT22;16244;51.956;12.980;2023-08-06T09:25:26;19.50;99.90
29201;DHT22;16244;51.956;12.980;2023-08-06T09:27:55;19.60;99.90
29201;DHT22;16244;51.956;12.980;2023-08-06T09:30:30;19.50;99.90
29201;DHT22;16244;51.956;12.980;2023-08-06T09:32:59;19.50;99.90
29201;DHT22;16244;51.956;12.980;2023-08-06T09:35:29;19.70;99.90
29201;DHT22;16244;51.956;12.980;2023-08-06T09:38:05;19.50;99.90
29201;DHT22;16244;51.956;12.980;2023-08-06T09:40:34;19.60;99.90
29201;DHT22;16244;51.956;12.980;2023-08-06T09:43:02;19.60;99.90
29201;DHT22;16244;51.956;12.980;2023-08-06T09:45:31;19.40;99.90
29201;DHT22;16244;51.956;12.980;2023-08-06T09:48:00;19.40;99.90
29201;DHT22;16244;51.956;12.980;2023-08-06T09:50:29;19.50;99.90
29201;DHT22;16244;51.956;12.980;2023-08-06T09:52:58;19.40;99.90
29201;DHT22;16244;51.956;12.980;2023-08-06T09:55:26;19.50;99.90
29201;DHT22;16244;51.956;12.980;2023-08-06T09:57:56;19.40;99.90
29201;DHT22;16244;51.956;12.980;2023-08-06T10:00:24;19.40;99.90
29201;DHT22;16244;51.956;12.980;2023-08-06T10:02:53;19.40;99.90
29201;DHT22;16244;51.956;12.980;2023-08-06T10:05:22;19.40;99.90
29201;DHT22;16244;51.956;12.980;2023-08-06T10:07:51;19.40;99.90
29201;DHT22;16244;51.956;12.980;2023-08-06T10:10:19;19.40;99.90
29201;DHT22;16244;51.956;12.980;2023-08-06T10:12:49;19.40;99.90
29201;DHT22;16244;51.956;12.980;2023-08-06T10:15:22;19.50;99.90
29201;DHT22;16244;51.956;12.980;2023-08-06T10:17:56;19.50;99.90
29201;DHT22;16244;51.956;12.980;2023-08-06T10:20:27;19.50;99.90
29201;DHT22;16244;51.956;12.980;2023-08-06T10:23:02;19.50;99.90
29201;DHT22;16244;51.956;12.980;2023-08-06T10:25:32;19.50;99.90
29201;DHT22;16244;51.956;12.980;2023-08-06T10:28:08;19.40;99.90
29201;DHT22;16244;51.956;12.980;2023-08-06T10:30:45;19.60;99.90
29201;DHT22;16244;51.956;12.980;2023-08-06T10:33:15;19.70;99.90
29201;DHT22;16244;51.956;12.980;2023-08-06T10:35:48;19.80;99.90
29201;DHT22;16244;51.956;12.980;2023-08-06T10:38:18;19.70;99.90
29201;DHT22;16244;51.956;12.980;2023-08-06T10:41:00;19.80;99.90
29201;DHT22;16244;51.956;12.980;2023-08-06T10:43:29;20.00;99.90
29201;DHT22;16244;51.956;12.980;2023-08-06T10:46:00;20.00;99.90
29201;DHT22;16244;51.956;12.980;2023-08-06T10:48:34;19.90;99.90
29201;DHT22;16244;51.956;12.980;2023-08-06T10:51:03;20.00;99.40
29201;DHT22;16244;51.956;12.980;2023-08-06T10:53:33;19.90;99.90
29201;DHT22;16244;51.956;12.980;2023-08-06T10:56:02;20.00;99.60
29201;DHT22;16244;51.956;12.980;2023-08-06T10:58:39;20.10;99.90
29201;DHT22;16244;51.956;12.980;2023-08-06T11:01:08;20.00;99.90
29201;DHT22;16244;51.956;12.980;2023-08-06T11:03:37;20.00;99.90
29201;DHT22;16244;51.956;12.980;2023-08-06T11:06:05;19.90;99.90
29201;DHT22;16244;51.956;12.980;2023-08-06T11:08:35;19.90;99.90
29201;DHT22;16244;51.956;12.980;2023-08-06T11:11:09;19.70;99.90
29201;DHT22;16244;51.956;12.980;2023-08-06T11:13:39;19.70;99.90
29201;DHT22;16244;51.956;12.980;2023-08-06T11:16:08;19.70;99.90
29201;DHT22;16244;51.956;12.980;2023-08-06T11:18:36;19.70;99.90
29201;DHT22;16244;51.956;12.980;2023-08-06T11:21:03;19.80;99.90
29201;DHT22;16244;51.956;12.980;2023-08-06T11:23:31;19.80;99.90
29201;DHT22;16244;51.956;12.980;2023-08-06T11:25:58;19.80;99.90
29201;DHT22;16244;51.956;12.980;2023-08-06T11:28:26;19.80;99.90
29201;DHT22;16244;51.956;12.980;2023-08-06T11:30:54;19.60;99.90
29201;DHT22;16244;51.956;12.980;2023-08-06T11:33:25;19.50;99.90
29201;DHT22;16244;51.956;12.980;2023-08-06T11:35:54;19.50;99.90
29201;DHT22;16244;51.956;12.980;2023-08-06T11:38:24;19.40;99.90
29201;DHT22;16244;51.956;12.980;2023-08-06T11:40:52;19.40;99.90
29201;DHT22;16244;51.956;12.980;2023-08-06T11:43:20;19.40;99.90
29201;DHT22;16244;51.956;12.980;2023-08-06T11:45:49;19.50;99.90
29201;DHT22;16244;51.956;12.980;2023-08-06T11:48:17;19.50;99.90
29201;DHT22;16244;51.956;12.980;2023-08-06T11:50:46;19.60;99.90
29201;DHT22;16244;51.956;12.980;2023-08-06T11:53:14;19.60;99.90
29201;DHT22;16244;51.956;12.980;2023-08-06T11:55:42;19.40;99.90
29201;DHT22;16244;51.956;12.980;2023-08-06T11:58:10;19.10;99.90
29201;DHT22;16244;51.956;12.980;2023-08-06T12:00:39;19.00;99.90
29201;DHT22;16244;51.956;12.980;2023-08-06T12:03:06;18.90;99.90
29201;DHT22;16244;51.956;12.980;2023-08-06T12:05:34;18.90;99.90
29201;DHT22;16244;51.956;12.980;2023-08-06T12:08:03;19.00;99.90
29201;DHT22;16244;51.956;12.980;2023-08-06T12:10:31;18.90;99.90
29201;DHT22;16244;51.956;12.980;2023-08-06T12:13:00;19.00;99.90
29201;DHT22;16244;51.956;12.980;2023-08-06T12:15:28;19.00;99.90
29201;DHT22;16244;51.956;12.980;2023-08-06T12:17:56;19.00;99.90
29201;DHT22;16244;51.956;12.980;2023-08-06T12:20:24;19.20;99.90
29201;DHT22;16244;51.956;12.980;2023-08-06T12:22:52;19.20;99.90
29201;DHT22;16244;51.956;12.980;2023-08-06T12:25:21;19.10;99.90
29201;DHT22;16244;51.956;12.980;2023-08-06T12:27:47;19.10;99.90
29201;DHT22;16244;51.956;12.980;2023-08-06T12:30:16;19.20;99.90
29201;DHT22;16244;51.956;12.980;2023-08-06T12:32:46;19.30;99.90
29201;DHT22;16244;51.956;12.980;2023-08-06T12:35:14;19.20;99.90
29201;DHT22;16244;51.956;12.980;2023-08-06T12:37:41;18.90;99.90
29201;DHT22;16244;51.956;12.980;2023-08-06T12:40:11;18.90;99.90
29201;DHT22;16244;51.956;12.980;2023-08-06T12:42:40;18.80;99.90
29201;DHT22;16244;51.956;12.980;2023-08-06T12:45:08;18.90;99.90
29201;DHT22;16244;51.956;12.980;2023-08-06T12:47:36;18.90;99.90
29201;DHT22;16244;51.956;12.980;2023-08-06T12:50:05;18.80;99.90
29201;DHT22;16244;51.956;12.980;2023-08-06T12:52:32;18.70;99.90
29201;DHT22;16244;51.956;12.980;2023-08-06T12:55:00;18.50;99.90
29201;DHT22;16244;51.956;12.980;2023-08-06T12:57:28;18.50;99.90
29201;DHT22;16244;51.956;12.980;2023-08-06T12:59:57;18.50;99.90
29201;DHT22;16244;51.956;12.980;2023-08-06T13:02:24;18.50;99.90
29201;DHT22;16244;51.956;12.980;2023-08-06T13:04:55;18.50;99.90
29201;DHT22;16244;51.956;12.980;2023-08-06T13:07:24;18.50;99.90
29201;DHT22;16244;51.956;12.980;2023-08-06T13:09:51;18.50;99.90
29201;DHT22;16244;51.956;12.980;2023-08-06T13:12:19;18.40;99.90
29201;DHT22;16244;51.956;12.980;2023-08-06T13:14:49;18.40;99.90
29201;DHT22;16244;51.956;12.980;2023-08-06T13:17:18;18.40;99.90
29201;DHT22;16244;51.956;12.980;2023-08-06T13:19:46;18.40;99.90
29201;DHT22;16244;51.956;12.980;2023-08-06T13:22:13;18.30;99.90
29201;DHT22;16244;51.956;12.980;2023-08-06T13:24:41;18.30;99.90
29201;DHT22;16244;51.956;12.980;2023-08-06T13:27:08;18.30;99.90
29201;DHT22;16244;51.956;12.980;2023-08-06T13:29:36;18.40;99.90
29201;DHT22;16244;51.956;12.980;2023-08-06T13:32:04;18.50;99.90
29201;DHT22;16244;51.956;12.980;2023-08-06T13:34:33;18.50;99.90
29201;DHT22;16244;51.956;12.980;2023-08-06T13:37:03;18.50;99.90
29201;DHT22;16244;51.956;12.980;2023-08-06T13:39:34;18.60;99.90
29201;DHT22;16244;51.956;12.980;2023-08-06T13:42:02;18.60;99.90
29201;DHT22;16244;51.956;12.980;2023-08-06T13:44:33;18.60;99.90
29201;DHT22;16244;51.956;12.980;2023-08-06T13:47:02;18.60;99.90
29201;DHT22;16244;51.956;12.980;2023-08-06T13:49:29;18.60;99.90
29201;DHT22;16244;51.956;12.980;2023-08-06T13:51:58;18.70;99.90
29201;DHT22;16244;51.956;12.980;2023-08-06T13:54:27;18.70;99.90
29201;DHT22;16244;51.956;12.980;2023-08-06T13:56:56;18.80;99.90
29201;DHT22;16244;51.956;12.980;2023-08-06T13:59:23;18.80;99.90
29201;DHT22;16244;51.956;12.980;2023-08-06T14:01:52;18.60;99.90
29201;DHT22;16244;51.956;12.980;2023-08-06T14:04:20;18.50;99.90
29201;DHT22;16244;51.956;12.980;2023-08-06T14:06:47;18.30;99.90
29201;DHT22;16244;51.956;12.980;2023-08-06T14:09:16;18.20;99.90
29201;DHT22;16244;51.956;12.980;2023-08-06T14:11:45;18.10;99.90
29201;DHT22;16244;51.956;12.980;2023-08-06T14:14:12;18.00;99.90
29201;DHT22;16244;51.956;12.980;2023-08-06T14:16:40;17.90;99.90
29201;DHT22;16244;51.956;12.980;2023-08-06T14:19:07;17.80;99.90
29201;DHT22;16244;51.956;12.980;2023-08-06T14:21:35;17.90;99.90
29201;DHT22;16244;51.956;12.980;2023-08-06T14:24:03;17.90;99.90
29201;DHT22;16244;51.956;12.980;2023-08-06T14:26:34;18.00;99.90
29201;DHT22;16244;51.956;12.980;2023-08-06T14:29:04;18.10;99.90
29201;DHT22;16244;51.956;12.980;2023-08-06T14:31:33;18.20;99.90
29201;DHT22;16244;51.956;12.980;2023-08-06T14:34:01;18.20;99.90
29201;DHT22;16244;51.956;12.980;2023-08-06T14:36:28;18.10;99.90
29201;DHT22;16244;51.956;12.980;2023-08-06T14:38:55;18.10;99.90
29201;DHT22;16244;51.956;12.980;2023-08-06T14:41:23;18.00;99.90
29201;DHT22;16244;51.956;12.980;2023-08-06T14:43:52;17.90;99.90
29201;DHT22;16244;51.956;12.980;2023-08-06T14:46:20;17.90;99.90
29201;DHT22;16244;51.956;12.980;2023-08-06T14:48:47;18.00;99.90
29201;DHT22;16244;51.956;12.980;2023-08-06T14:51:15;18.10;99.90
29201;DHT22;16244;51.956;12.980;2023-08-06T14:53:45;18.10;99.90
29201;DHT22;16244;51.956;12.980;2023-08-06T14:56:12;18.10;99.90
29201;DHT22;16244;51.956;12.980;2023-08-06T14:58:40;18.20;99.90
29201;DHT22;16244;51.956;12.980;2023-08-06T15:01:10;18.10;99.90
29201;DHT22;16244;51.956;12.980;2023-08-06T15:03:37;18.20;99.90
29201;DHT22;16244;51.956;12.980;2023-08-06T15:06:05;18.20;99.90
29201;DHT22;16244;51.956;12.980;2023-08-06T15:08:32;18.20;99.90
29201;DHT22;16244;51.956;12.980;2023-08-06T15:11:00;18.20;99.90
29201;DHT22;16244;51.956;12.980;2023-08-06T15:13:28;18.20;99.90
29201;DHT22;16244;51.956;12.980;2023-08-06T15:15:56;18.20;99.90
29201;DHT22;16244;51.956;12.980;2023-08-06T15:18:25;18.20;99.90
29201;DHT22;16244;51.956;12.980;2023-08-06T15:20:52;18.20;99.90
29201;DHT22;16244;51.956;12.980;2023-08-06T15:23:20;18.20;99.90
29201;DHT22;16244;51.956;12.980;2023-08-06T15:25:47;18.30;99.90